sensor_id;sensor_type;location;lat;lon;timestamp;pressure;altitude;pressure_sealevel;temperature;humidity
26859;BME280;14429;48.346;16.338;2023-07-29T00:01:18;99263.78;;;28.20;42.58
26859;BME280;14429;48.346;16.338;2023-07-29T00:03:43;99261.50;;;28.17;42.38
26859;BME280;14429;48.346;16.338;2023-07-29T00:06:09;99262.72;;;28.21;42.14
26859;BME280;14429;48.346;16.338;2023-07-29T00:08:36;99256.63;;;28.19;42.39
26859;BME280;14429;48.346;16.338;2023-07-29T00:11:01;99273.41;;;27.81;43.50
26859;BME280;14429;48.346;16.338;2023-07-29T00:13:27;99265.31;;;27.37;44.77
26859;BME280;14429;48.346;16.338;2023-07-29T00:15:53;99267.31;;;27.79;44.04
26859;BME280;14429;48.346;16.338;2023-07-29T00:18:19;99262.56;;;27.68;43.58
26859;BME280;14429;48.346;16.338;2023-07-29T00:20:44;99261.06;;;27.96;42.72
26859;BME280;14429;48.346;16.338;2023-07-29T00:23:10;99257.47;;;27.95;42.83
26859;BME280;14429;48.346;16.338;2023-07-29T00:25:36;99257.28;;;27.97;42.75
26859;BME280;14429;48.346;16.338;2023-07-29T00:28:02;99253.09;;;27.64;44.59
26859;BME280;14429;48.346;16.338;2023-07-29T00:30:27;99260.88;;;27.67;43.61
26859;BME280;14429;48.346;16.338;2023-07-29T00:32:53;99252.66;;;27.67;43.44
26859;BME280;14429;48.346;16.338;2023-07-29T00:35:18;99257.88;;;27.44;45.28
26859;BME280;14429;48.346;16.338;2023-07-29T00:37:43;99255.41;;;27.67;43.47
26859;BME280;14429;48.346;16.338;2023-07-29T00:40:14;99257.53;;;27.89;43.08
26859;BME280;14429;48.346;16.338;2023-07-29T00:42:41;99249.88;;;27.97;42.94
26859;BME280;14429;48.346;16.338;2023-07-29T00:45:08;99244.16;;;27.99;42.48
26859;BME280;14429;48.346;16.338;2023-07-29T00:47:33;99249.75;;;27.86;43.67
26859;BME280;14429;48.346;16.338;2023-07-29T00:49:59;99251.31;;;28.00;42.83
26859;BME280;14429;48.346;16.338;2023-07-29T00:52:24;99247.72;;;27.99;42.78
26859;BME280;14429;48.346;16.338;2023-07-29T00:54:50;99237.97;;;28.03;42.68
26859;BME280;14429;48.346;16.338;2023-07-29T00:57:16;99245.22;;;27.98;42.73
26859;BME280;14429;48.346;16.338;2023-07-29T00:59:44;99248.88;;;27.37;44.92
26859;BME280;14429;48.346;16.338;2023-07-29T01:02:09;99237.94;;;27.86;43.14
26859;BME280;14429;48.346;16.338;2023-07-29T01:04:35;99252.69;;;27.85;42.97
26859;BME280;14429;48.346;16.338;2023-07-29T01:07:16;99230.44;;;27.75;44.27
26859;BME280;14429;48.346;16.338;2023-07-29T01:09:52;99234.56;;;27.84;43.09
26859;BME280;14429;48.346;16.338;2023-07-29T01:12:22;99231.13;;;27.94;42.68
26859;BME280;14429;48.346;16.338;2023-07-29T01:14:59;99234.94;;;27.93;42.74
26859;BME280;14429;48.346;16.338;2023-07-29T01:17:30;99240.47;;;27.87;42.89
26859;BME280;14429;48.346;16.338;2023-07-29T01:20:00;99238.66;;;27.75;43.54
26859;BME280;14429;48.346;16.338;2023-07-29T01:22:26;99239.84;;;27.61;43.71
26859;BME280;14429;48.346;16.338;2023-07-29T01:24:54;99235.94;;;27.75;43.38
26859;BME280;14429;48.346;16.338;2023-07-29T01:27:19;99242.16;;;27.82;43.13
26859;BME280;14429;48.346;16.338;2023-07-29T01:29:45;99244.69;;;27.83;43.14
26859;BME280;14429;48.346;16.338;2023-07-29T01:32:14;99248.34;;;27.53;45.20
26859;BME280;14429;48.346;16.338;2023-07-29T01:34:43;99250.34;;;27.64;43.50
26859;BME280;14429;48.346;16.338;2023-07-29T01:37:14;99248.09;;;27.24;46.19
26859;BME280;14429;48.346;16.338;2023-07-29T01:39:45;99242.06;;;27.46;44.50
26859;BME280;14429;48.346;16.338;2023-07-29T01:42:12;99241.63;;;27.49;45.14
26859;BME280;14429;48.346;16.338;2023-07-29T01:44:37;99243.00;;;27.34;45.76
26859;BME280;14429;48.346;16.338;2023-07-29T01:47:03;99246.25;;;27.49;44.00
26859;BME280;14429;48.346;16.338;2023-07-29T01:49:28;99246.72;;;27.70;43.23
26859;BME280;14429;48.346;16.338;2023-07-29T01:51:54;99247.19;;;27.67;43.42
26859;BME280;14429;48.346;16.338;2023-07-29T01:54:19;99257.38;;;27.78;43.19
26859;BME280;14429;48.346;16.338;2023-07-29T01:56:45;99252.78;;;27.78;43.29
26859;BME280;14429;48.346;16.338;2023-07-29T01:59:11;99250.97;;;27.66;43.39
26859;BME280;14429;48.346;16.338;2023-07-29T02:01:37;99251.47;;;27.57;44.38
26859;BME280;14429;48.346;16.338;2023-07-29T02:04:02;99252.44;;;27.68;43.38
26859;BME280;14429;48.346;16.338;2023-07-29T02:06:28;99241.56;;;27.80;43.12
26859;BME280;14429;48.346;16.338;2023-07-29T02:08:54;99242.28;;;27.69;43.45
26859;BME280;14429;48.346;16.338;2023-07-29T02:11:19;99247.63;;;27.64;43.56
26859;BME280;14429;48.346;16.338;2023-07-29T02:13:45;99248.31;;;27.77;43.34
26859;BME280;14429;48.346;16.338;2023-07-29T02:16:12;99239.41;;;27.64;43.83
26859;BME280;14429;48.346;16.338;2023-07-29T02:18:37;99242.41;;;27.80;43.02
26859;BME280;14429;48.346;16.338;2023-07-29T02:21:02;99236.09;;;27.80;43.06
26859;BME280;14429;48.346;16.338;2023-07-29T02:23:28;99233.78;;;27.77;43.02
26859;BME280;14429;48.346;16.338;2023-07-29T02:25:53;99236.25;;;27.85;42.99
26859;BME280;14429;48.346;16.338;2023-07-29T02:28:19;99229.22;;;27.71;43.45
26859;BME280;14429;48.346;16.338;2023-07-29T02:30:44;99226.06;;;27.43;45.29
26859;BME280;14429;48.346;16.338;2023-07-29T02:33:11;99227.50;;;27.70;43.39
26859;BME280;14429;48.346;16.338;2023-07-29T02:35:36;99225.25;;;27.36;44.12
26859;BME280;14429;48.346;16.338;2023-07-29T02:38:02;99237.91;;;27.37;44.45
26859;BME280;14429;48.346;16.338;2023-07-29T02:40:27;99230.69;;;27.43;44.29
26859;BME280;14429;48.346;16.338;2023-07-29T02:42:52;99232.59;;;27.66;43.41
26859;BME280;14429;48.346;16.338;2023-07-29T02:45:18;99237.31;;;27.60;43.43
26859;BME280;14429;48.346;16.338;2023-07-29T02:47:43;99241.19;;;27.52;44.27
26859;BME280;14429;48.346;16.338;2023-07-29T02:50:10;99241.84;;;27.72;43.26
26859;BME280;14429;48.346;16.338;2023-07-29T02:52:36;99239.09;;;27.72;43.30
26859;BME280;14429;48.346;16.338;2023-07-29T02:55:01;99235.97;;;27.68;43.27
26859;BME280;14429;48.346;16.338;2023-07-29T02:57:26;99237.59;;;27.76;42.96
26859;BME280;14429;48.346;16.338;2023-07-29T02:59:52;99249.56;;;27.57;43.48
26859;BME280;14429;48.346;16.338;2023-07-29T03:02:17;99252.16;;;27.52;43.69
26859;BME280;14429;48.346;16.338;2023-07-29T03:04:43;99251.19;;;27.64;43.41
26859;BME280;14429;48.346;16.338;2023-07-29T03:07:09;99249.44;;;27.70;43.43
26859;BME280;14429;48.346;16.338;2023-07-29T03:09:36;99246.91;;;27.75;43.00
26859;BME280;14429;48.346;16.338;2023-07-29T03:12:01;99257.47;;;27.71;43.02
26859;BME280;14429;48.346;16.338;2023-07-29T03:14:27;99258.50;;;27.70;43.12
26859;BME280;14429;48.346;16.338;2023-07-29T03:16:52;99262.50;;;27.07;45.65
26859;BME280;14429;48.346;16.338;2023-07-29T03:19:17;99259.13;;;27.48;43.86
26859;BME280;14429;48.346;16.338;2023-07-29T03:21:43;99263.63;;;27.36;44.04
26859;BME280;14429;48.346;16.338;2023-07-29T03:24:10;99252.31;;;27.57;43.56
26859;BME280;14429;48.346;16.338;2023-07-29T03:26:35;99266.00;;;27.57;43.58
26859;BME280;14429;48.346;16.338;2023-07-29T03:29:00;99264.94;;;27.28;44.71
26859;BME280;14429;48.346;16.338;2023-07-29T03:31:26;99272.53;;;25.88;49.70
26859;BME280;14429;48.346;16.338;2023-07-29T03:33:51;99266.97;;;26.46;46.68
26859;BME280;14429;48.346;16.338;2023-07-29T03:36:17;99260.72;;;26.88;45.26
26859;BME280;14429;48.346;16.338;2023-07-29T03:38:42;99268.47;;;26.98;45.20
26859;BME280;14429;48.346;16.338;2023-07-29T03:41:09;99277.16;;;27.32;44.33
26859;BME280;14429;48.346;16.338;2023-07-29T03:43:34;99269.00;;;26.76;46.63
26859;BME280;14429;48.346;16.338;2023-07-29T03:46:00;99262.91;;;27.10;44.74
26859;BME280;14429;48.346;16.338;2023-07-29T03:48:25;99258.19;;;26.93;45.30
26859;BME280;14429;48.346;16.338;2023-07-29T03:50:51;99267.88;;;27.33;44.15
26859;BME280;14429;48.346;16.338;2023-07-29T03:53:16;99263.41;;;26.45;47.63
26859;BME280;14429;48.346;16.338;2023-07-29T03:55:42;99258.91;;;26.70;45.84
26859;BME280;14429;48.346;16.338;2023-07-29T03:58:09;99273.47;;;27.07;44.89
26859;BME280;14429;48.346;16.338;2023-07-29T04:00:34;99259.03;;;26.87;45.74
26859;BME280;14429;48.346;16.338;2023-07-29T04:02:59;99269.75;;;26.95;46.22
26859;BME280;14429;48.346;16.338;2023-07-29T04:05:25;99268.63;;;27.09;44.73
26859;BME280;14429;48.346;16.338;2023-07-29T04:07:50;99269.88;;;26.57;47.50
26859;BME280;14429;48.346;16.338;2023-07-29T04:10:16;99265.84;;;26.79;45.87
26859;BME280;14429;48.346;16.338;2023-07-29T04:12:42;99272.28;;;26.97;45.00
26859;BME280;14429;48.346;16.338;2023-07-29T04:15:09;99273.25;;;27.15;44.67
26859;BME280;14429;48.346;16.338;2023-07-29T04:17:35;99278.47;;;27.23;44.37
26859;BME280;14429;48.346;16.338;2023-07-29T04:20:00;99280.56;;;27.21;44.38
26859;BME280;14429;48.346;16.338;2023-07-29T04:22:26;99283.44;;;27.38;43.98
26859;BME280;14429;48.346;16.338;2023-07-29T04:24:51;99287.25;;;27.37;43.88
26859;BME280;14429;48.346;16.338;2023-07-29T04:27:16;99276.19;;;27.50;43.60
26859;BME280;14429;48.346;16.338;2023-07-29T04:29:42;99291.28;;;27.59;43.32
26859;BME280;14429;48.346;16.338;2023-07-29T04:32:09;99284.94;;;27.65;43.36
26859;BME280;14429;48.346;16.338;2023-07-29T04:34:34;99279.84;;;27.68;43.23
26859;BME280;14429;48.346;16.338;2023-07-29T04:36:59;99293.78;;;27.67;43.15
26859;BME280;14429;48.346;16.338;2023-07-29T04:39:25;99284.91;;;27.41;43.95
26859;BME280;14429;48.346;16.338;2023-07-29T04:41:50;99288.34;;;27.61;43.10
26859;BME280;14429;48.346;16.338;2023-07-29T04:44:16;99298.06;;;27.57;43.19
26859;BME280;14429;48.346;16.338;2023-07-29T04:46:41;99299.06;;;27.62;43.20
26859;BME280;14429;48.346;16.338;2023-07-29T04:49:08;99295.94;;;27.59;43.34
26859;BME280;14429;48.346;16.338;2023-07-29T04:51:33;99300.16;;;27.61;43.10
26859;BME280;14429;48.346;16.338;2023-07-29T04:53:59;99297.50;;;27.48;43.59
26859;BME280;14429;48.346;16.338;2023-07-29T04:56:24;99304.78;;;27.61;43.36
26859;BME280;14429;48.346;16.338;2023-07-29T04:58:50;99294.66;;;27.61;43.03
26859;BME280;14429;48.346;16.338;2023-07-29T05:01:15;99296.00;;;27.52;43.38
26859;BME280;14429;48.346;16.338;2023-07-29T05:03:40;99301.09;;;27.49;43.66
26859;BME280;14429;48.346;16.338;2023-07-29T05:06:07;99307.81;;;27.53;43.34
26859;BME280;14429;48.346;16.338;2023-07-29T05:08:33;99302.72;;;27.56;43.37
26859;BME280;14429;48.346;16.338;2023-07-29T05:10:58;99310.47;;;27.59;43.17
26859;BME280;14429;48.346;16.338;2023-07-29T05:13:24;99305.63;;;27.61;43.07
26859;BME280;14429;48.346;16.338;2023-07-29T05:15:50;99304.84;;;27.54;43.18
26859;BME280;14429;48.346;16.338;2023-07-29T05:18:16;99303.31;;;27.58;43.15
26859;BME280;14429;48.346;16.338;2023-07-29T05:20:41;99304.13;;;27.35;43.92
26859;BME280;14429;48.346;16.338;2023-07-29T05:23:08;99307.34;;;27.56;43.43
26859;BME280;14429;48.346;16.338;2023-07-29T05:25:33;99311.53;;;27.58;43.06
26859;BME280;14429;48.346;16.338;2023-07-29T05:27:59;99316.88;;;27.53;43.33
26859;BME280;14429;48.346;16.338;2023-07-29T05:30:24;99319.59;;;27.53;43.08
26859;BME280;14429;48.346;16.338;2023-07-29T05:32:50;99313.22;;;27.59;43.29
26859;BME280;14429;48.346;16.338;2023-07-29T05:35:15;99321.09;;;27.49;43.38
26859;BME280;14429;48.346;16.338;2023-07-29T05:37:41;99316.19;;;27.58;43.10
26859;BME280;14429;48.346;16.338;2023-07-29T05:40:08;99318.38;;;27.49;43.22
26859;BME280;14429;48.346;16.338;2023-07-29T05:42:33;99320.28;;;27.49;43.45
26859;BME280;14429;48.346;16.338;2023-07-29T05:44:59;99316.94;;;27.40;43.68
26859;BME280;14429;48.346;16.338;2023-07-29T05:47:24;99318.44;;;27.36;43.90
26859;BME280;14429;48.346;16.338;2023-07-29T05:49:50;99315.94;;;27.35;43.48
26859;BME280;14429;48.346;16.338;2023-07-29T05:52:15;99326.44;;;27.38;43.64
26859;BME280;14429;48.346;16.338;2023-07-29T05:54:41;99328.63;;;27.17;44.04
26859;BME280;14429;48.346;16.338;2023-07-29T05:57:08;99322.28;;;27.23;43.89
26859;BME280;14429;48.346;16.338;2023-07-29T05:59:34;99327.75;;;27.29;43.97
26859;BME280;14429;48.346;16.338;2023-07-29T06:01:59;99328.16;;;27.33;43.70
26859;BME280;14429;48.346;16.338;2023-07-29T06:04:25;99339.94;;;27.33;43.71
26859;BME280;14429;48.346;16.338;2023-07-29T06:06:50;99331.75;;;27.27;43.97
26859;BME280;14429;48.346;16.338;2023-07-29T06:09:16;99335.34;;;27.27;44.01
26859;BME280;14429;48.346;16.338;2023-07-29T06:11:41;99333.25;;;27.23;44.11
26859;BME280;14429;48.346;16.338;2023-07-29T06:14:08;99334.09;;;27.30;43.93
26859;BME280;14429;48.346;16.338;2023-07-29T06:16:34;99336.59;;;27.25;43.87
26859;BME280;14429;48.346;16.338;2023-07-29T06:18:59;99329.44;;;27.24;44.01
26859;BME280;14429;48.346;16.338;2023-07-29T06:21:25;99330.94;;;27.20;44.08
26859;BME280;14429;48.346;16.338;2023-07-29T06:23:50;99336.16;;;27.28;43.95
26859;BME280;14429;48.346;16.338;2023-07-29T06:26:15;99339.13;;;27.26;43.76
26859;BME280;14429;48.346;16.338;2023-07-29T06:28:41;99334.28;;;27.22;44.05
26859;BME280;14429;48.346;16.338;2023-07-29T06:31:08;99333.22;;;27.29;43.75
26859;BME280;14429;48.346;16.338;2023-07-29T06:33:33;99332.19;;;27.24;43.85
26859;BME280;14429;48.346;16.338;2023-07-29T06:35:58;99338.28;;;27.26;43.92
26859;BME280;14429;48.346;16.338;2023-07-29T06:38:24;99335.13;;;27.29;43.75
26859;BME280;14429;48.346;16.338;2023-07-29T06:40:49;99339.13;;;27.33;43.95
26859;BME280;14429;48.346;16.338;2023-07-29T06:43:15;99336.16;;;27.28;43.70
26859;BME280;14429;48.346;16.338;2023-07-29T06:45:40;99333.66;;;27.26;44.16
26859;BME280;14429;48.346;16.338;2023-07-29T06:48:07;99346.75;;;27.18;44.03
26859;BME280;14429;48.346;16.338;2023-07-29T06:50:32;99323.13;;;27.30;43.67
26859;BME280;14429;48.346;16.338;2023-07-29T06:52:58;99333.25;;;27.23;43.98
26859;BME280;14429;48.346;16.338;2023-07-29T06:55:23;99329.00;;;27.27;43.90
26859;BME280;14429;48.346;16.338;2023-07-29T06:57:49;99330.94;;;27.20;44.33
26859;BME280;14429;48.346;16.338;2023-07-29T07:00:14;99324.81;;;27.31;43.75
26859;BME280;14429;48.346;16.338;2023-07-29T07:02:40;99323.31;;;27.35;43.65
26859;BME280;14429;48.346;16.338;2023-07-29T07:05:07;99325.78;;;27.42;43.58
26859;BME280;14429;48.346;16.338;2023-07-29T07:07:32;99327.72;;;27.35;43.58
26859;BME280;14429;48.346;16.338;2023-07-29T07:09:58;99331.69;;;27.39;43.51
26859;BME280;14429;48.346;16.338;2023-07-29T07:12:23;99327.13;;;27.34;43.73
26859;BME280;14429;48.346;16.338;2023-07-29T07:14:49;99333.63;;;27.33;43.65
26859;BME280;14429;48.346;16.338;2023-07-29T07:17:14;99326.06;;;27.28;43.90
26859;BME280;14429;48.346;16.338;2023-07-29T07:19:40;99325.63;;;27.25;43.96
26859;BME280;14429;48.346;16.338;2023-07-29T07:22:06;99331.56;;;27.28;43.98
26859;BME280;14429;48.346;16.338;2023-07-29T07:24:32;99333.38;;;27.40;43.54
26859;BME280;14429;48.346;16.338;2023-07-29T07:26:57;99324.28;;;27.46;43.28
26859;BME280;14429;48.346;16.338;2023-07-29T07:29:23;99318.53;;;27.54;43.10
26859;BME280;14429;48.346;16.338;2023-07-29T07:31:50;99317.94;;;27.52;43.12
26859;BME280;14429;48.346;16.338;2023-07-29T07:34:15;99319.16;;;27.56;43.43
26859;BME280;14429;48.346;16.338;2023-07-29T07:36:41;99315.19;;;27.52;43.30
26859;BME280;14429;48.346;16.338;2023-07-29T07:39:07;99305.63;;;27.61;44.77
26859;BME280;14429;48.346;16.338;2023-07-29T07:41:33;99308.97;;;27.63;43.18
26859;BME280;14429;48.346;16.338;2023-07-29T07:43:58;99319.50;;;27.66;43.03
26859;BME280;14429;48.346;16.338;2023-07-29T07:46:24;99311.47;;;27.71;43.33
26859;BME280;14429;48.346;16.338;2023-07-29T07:48:49;99313.59;;;27.69;43.15
26859;BME280;14429;48.346;16.338;2023-07-29T07:51:14;99307.25;;;27.68;43.00
26859;BME280;14429;48.346;16.338;2023-07-29T07:53:40;99311.53;;;27.58;44.31
26859;BME280;14429;48.346;16.338;2023-07-29T07:56:07;99311.88;;;27.74;42.89
26859;BME280;14429;48.346;16.338;2023-07-29T07:58:32;99314.66;;;27.68;43.20
26859;BME280;14429;48.346;16.338;2023-07-29T08:01:01;99311.63;;;27.76;42.76
26859;BME280;14429;48.346;16.338;2023-07-29T08:03:26;99315.63;;;27.80;43.07
26859;BME280;14429;48.346;16.338;2023-07-29T08:05:52;99312.63;;;27.88;42.98
26859;BME280;14429;48.346;16.338;2023-07-29T08:08:17;99307.94;;;27.64;44.44
26859;BME280;14429;48.346;16.338;2023-07-29T08:10:42;99309.88;;;27.81;42.71
26859;BME280;14429;48.346;16.338;2023-07-29T08:13:09;99309.72;;;27.76;43.82
26859;BME280;14429;48.346;16.338;2023-07-29T08:15:35;99307.31;;;27.62;44.35
26859;BME280;14429;48.346;16.338;2023-07-29T08:18:00;99314.38;;;27.76;43.63
26859;BME280;14429;48.346;16.338;2023-07-29T08:20:25;99313.94;;;27.79;43.17
26859;BME280;14429;48.346;16.338;2023-07-29T08:22:51;99306.94;;;27.83;42.88
26859;BME280;14429;48.346;16.338;2023-07-29T08:25:16;99305.09;;;27.77;43.06
26859;BME280;14429;48.346;16.338;2023-07-29T08:27:42;99304.19;;;27.83;43.01
26859;BME280;14429;48.346;16.338;2023-07-29T08:30:09;99296.84;;;27.77;43.37
26859;BME280;14429;48.346;16.338;2023-07-29T08:32:35;99291.09;;;27.85;44.00
26859;BME280;14429;48.346;16.338;2023-07-29T08:35:00;99289.94;;;27.74;44.33
26859;BME280;14429;48.346;16.338;2023-07-29T08:37:25;99301.22;;;27.90;43.18
26859;BME280;14429;48.346;16.338;2023-07-29T08:39:51;99301.66;;;27.88;42.95
26859;BME280;14429;48.346;16.338;2023-07-29T08:42:19;99294.81;;;27.96;42.77
26859;BME280;14429;48.346;16.338;2023-07-29T08:44:45;99287.22;;;27.98;43.17
26859;BME280;14429;48.346;16.338;2023-07-29T08:47:12;99288.88;;;27.99;42.48
26859;BME280;14429;48.346;16.338;2023-07-29T08:49:38;99286.97;;;28.00;42.60
26859;BME280;14429;48.346;16.338;2023-07-29T08:52:05;99281.34;;;27.95;42.59
26859;BME280;14429;48.346;16.338;2023-07-29T08:54:31;99283.84;;;27.96;42.52
26859;BME280;14429;48.346;16.338;2023-07-29T08:56:57;99288.88;;;27.99;42.80
26859;BME280;14429;48.346;16.338;2023-07-29T08:59:23;99282.94;;;28.02;42.57
26859;BME280;14429;48.346;16.338;2023-07-29T09:01:50;99287.38;;;28.03;44.59
26859;BME280;14429;48.346;16.338;2023-07-29T09:04:17;99285.25;;;28.05;42.89
26859;BME280;14429;48.346;16.338;2023-07-29T09:06:44;99273.59;;;28.10;42.89
26859;BME280;14429;48.346;16.338;2023-07-29T09:09:10;99273.34;;;27.93;43.42
26859;BME280;14429;48.346;16.338;2023-07-29T09:11:35;99273.19;;;28.06;43.28
26859;BME280;14429;48.346;16.338;2023-07-29T09:14:01;99275.50;;;28.09;42.73
26859;BME280;14429;48.346;16.338;2023-07-29T09:16:26;99263.50;;;28.04;43.41
26859;BME280;14429;48.346;16.338;2023-07-29T09:18:52;99272.31;;;28.12;42.58
26859;BME280;14429;48.346;16.338;2023-07-29T09:21:22;99256.75;;;28.06;42.75
26859;BME280;14429;48.346;16.338;2023-07-29T09:23:50;99244.88;;;28.12;42.54
26859;BME280;14429;48.346;16.338;2023-07-29T09:26:22;99251.19;;;28.13;43.08
26859;BME280;14429;48.346;16.338;2023-07-29T09:28:52;99246.31;;;28.15;42.78
26859;BME280;14429;48.346;16.338;2023-07-29T09:31:19;99245.19;;;28.22;43.16
26859;BME280;14429;48.346;16.338;2023-07-29T09:33:45;99236.78;;;28.17;42.19
26859;BME280;14429;48.346;16.338;2023-07-29T09:36:10;99250.50;;;28.17;42.45
26859;BME280;14429;48.346;16.338;2023-07-29T09:38:37;99236.72;;;28.23;42.27
26859;BME280;14429;48.346;16.338;2023-07-29T09:41:03;99240.22;;;28.13;42.44
26859;BME280;14429;48.346;16.338;2023-07-29T09:43:29;99231.94;;;28.19;42.69
26859;BME280;14429;48.346;16.338;2023-07-29T09:45:55;99229.03;;;28.32;42.95
26859;BME280;14429;48.346;16.338;2023-07-29T09:48:24;99236.50;;;28.43;42.09
26859;BME280;14429;48.346;16.338;2023-07-29T09:50:50;99222.41;;;28.39;41.95
26859;BME280;14429;48.346;16.338;2023-07-29T09:53:15;99217.59;;;28.35;42.46
26859;BME280;14429;48.346;16.338;2023-07-29T09:55:47;99229.19;;;28.37;41.92
26859;BME280;14429;48.346;16.338;2023-07-29T09:58:13;99227.19;;;28.43;42.32
26859;BME280;14429;48.346;16.338;2023-07-29T10:00:39;99232.31;;;28.40;41.86
26859;BME280;14429;48.346;16.338;2023-07-29T10:03:05;99223.09;;;28.52;42.34
26859;BME280;14429;48.346;16.338;2023-07-29T10:05:32;99218.94;;;28.50;42.44
26859;BME280;14429;48.346;16.338;2023-07-29T10:07:58;99214.22;;;28.86;42.89
26859;BME280;14429;48.346;16.338;2023-07-29T10:10:24;99215.91;;;28.87;40.99
26859;BME280;14429;48.346;16.338;2023-07-29T10:12:51;99208.53;;;28.70;41.29
26859;BME280;14429;48.346;16.338;2023-07-29T10:15:18;99216.09;;;28.56;41.53
26859;BME280;14429;48.346;16.338;2023-07-29T10:17:45;99213.38;;;28.56;41.75
26859;BME280;14429;48.346;16.338;2023-07-29T10:20:11;99209.38;;;28.52;41.80
26859;BME280;14429;48.346;16.338;2023-07-29T10:22:38;99211.28;;;28.52;41.75
26859;BME280;14429;48.346;16.338;2023-07-29T10:25:07;99208.31;;;28.53;42.28
26859;BME280;14429;48.346;16.338;2023-07-29T10:27:37;99210.63;;;28.56;41.64
26859;BME280;14429;48.346;16.338;2023-07-29T10:30:09;99206.78;;;28.75;41.71
26859;BME280;14429;48.346;16.338;2023-07-29T10:32:36;99210.69;;;28.97;41.57
26859;BME280;14429;48.346;16.338;2023-07-29T10:35:02;99202.91;;;29.23;41.96
26859;BME280;14429;48.346;16.338;2023-07-29T10:37:28;99198.59;;;29.15;40.62
26859;BME280;14429;48.346;16.338;2023-07-29T10:39:54;99210.09;;;28.95;41.40
26859;BME280;14429;48.346;16.338;2023-07-29T10:42:20;99205.97;;;28.86;41.00
26859;BME280;14429;48.346;16.338;2023-07-29T10:44:46;99206.22;;;28.67;41.46
26859;BME280;14429;48.346;16.338;2023-07-29T10:47:13;99202.19;;;28.87;41.07
26859;BME280;14429;48.346;16.338;2023-07-29T10:49:40;99191.88;;;29.11;41.02
26859;BME280;14429;48.346;16.338;2023-07-29T10:52:05;99188.19;;;28.88;41.14
26859;BME280;14429;48.346;16.338;2023-07-29T10:54:41;99173.16;;;28.91;41.18
26859;BME280;14429;48.346;16.338;2023-07-29T10:57:07;99181.41;;;28.91;41.28
26859;BME280;14429;48.346;16.338;2023-07-29T10:59:33;99179.22;;;28.64;41.69
26859;BME280;14429;48.346;16.338;2023-07-29T11:01:59;99167.53;;;28.57;41.09
26859;BME280;14429;48.346;16.338;2023-07-29T11:04:27;99162.63;;;28.88;40.93
26859;BME280;14429;48.346;16.338;2023-07-29T11:07:19;99146.13;;;29.05;40.72
26859;BME280;14429;48.346;16.338;2023-07-29T11:09:53;99157.38;;;28.86;40.94
26859;BME280;14429;48.346;16.338;2023-07-29T11:12:38;99148.81;;;28.65;41.72
26859;BME280;14429;48.346;16.338;2023-07-29T11:15:13;99156.19;;;28.82;41.11
26859;BME280;14429;48.346;16.338;2023-07-29T11:17:40;99143.06;;;28.96;39.83
26859;BME280;14429;48.346;16.338;2023-07-29T11:20:09;99145.28;;;28.76;41.14
26859;BME280;14429;48.346;16.338;2023-07-29T11:22:35;99141.28;;;28.61;41.80
26859;BME280;14429;48.346;16.338;2023-07-29T11:25:01;99138.13;;;28.75;38.86
26859;BME280;14429;48.346;16.338;2023-07-29T11:27:27;99136.94;;;28.36;42.35
26859;BME280;14429;48.346;16.338;2023-07-29T11:29:56;99144.34;;;28.35;42.22
26859;BME280;14429;48.346;16.338;2023-07-29T11:32:22;99121.28;;;28.36;42.39
26859;BME280;14429;48.346;16.338;2023-07-29T11:34:48;99133.66;;;28.45;41.81
26859;BME280;14429;48.346;16.338;2023-07-29T11:37:14;99136.16;;;28.29;42.60
26859;BME280;14429;48.346;16.338;2023-07-29T11:39:40;99135.25;;;28.35;42.26
26859;BME280;14429;48.346;16.338;2023-07-29T11:42:06;99139.06;;;28.34;42.16
26859;BME280;14429;48.346;16.338;2023-07-29T11:44:31;99132.19;;;28.43;41.74
26859;BME280;14429;48.346;16.338;2023-07-29T11:46:57;99124.88;;;28.54;41.60
26859;BME280;14429;48.346;16.338;2023-07-29T11:49:22;99115.16;;;28.70;38.87
26859;BME280;14429;48.346;16.338;2023-07-29T11:51:48;99129.47;;;28.60;41.28
26859;BME280;14429;48.346;16.338;2023-07-29T11:54:15;99121.88;;;28.56;41.97
26859;BME280;14429;48.346;16.338;2023-07-29T11:56:40;99124.31;;;28.64;41.56
26859;BME280;14429;48.346;16.338;2023-07-29T11:59:06;99115.84;;;28.65;41.29
26859;BME280;14429;48.346;16.338;2023-07-29T12:01:32;99114.16;;;28.53;41.49
26859;BME280;14429;48.346;16.338;2023-07-29T12:03:58;99115.00;;;28.94;40.66
26859;BME280;14429;48.346;16.338;2023-07-29T12:06:24;99108.94;;;28.74;41.08
26859;BME280;14429;48.346;16.338;2023-07-29T12:08:50;99126.78;;;28.36;41.89
26859;BME280;14429;48.346;16.338;2023-07-29T12:11:17;99107.75;;;28.70;40.43
26859;BME280;14429;48.346;16.338;2023-07-29T12:13:43;99108.94;;;28.74;40.39
26859;BME280;14429;48.346;16.338;2023-07-29T12:16:08;99102.91;;;28.83;39.84
26859;BME280;14429;48.346;16.338;2023-07-29T12:18:34;99121.94;;;28.67;40.87
26859;BME280;14429;48.346;16.338;2023-07-29T12:20:59;99121.66;;;28.86;40.55
26859;BME280;14429;48.346;16.338;2023-07-29T12:23:25;99109.50;;;28.94;40.80
26859;BME280;14429;48.346;16.338;2023-07-29T12:25:51;99109.97;;;29.31;38.51
26859;BME280;14429;48.346;16.338;2023-07-29T12:28:21;99121.06;;;29.13;40.18
26859;BME280;14429;48.346;16.338;2023-07-29T12:30:47;99113.91;;;29.35;40.06
26859;BME280;14429;48.346;16.338;2023-07-29T12:33:29;99104.50;;;29.87;38.10
26859;BME280;14429;48.346;16.338;2023-07-29T12:35:54;99111.66;;;29.54;39.14
26859;BME280;14429;48.346;16.338;2023-07-29T12:38:21;99115.63;;;29.81;40.66
26859;BME280;14429;48.346;16.338;2023-07-29T12:40:46;99127.47;;;29.70;39.37
26859;BME280;14429;48.346;16.338;2023-07-29T12:43:11;99141.19;;;29.48;40.81
26859;BME280;14429;48.346;16.338;2023-07-29T12:45:38;99148.53;;;29.13;41.04